sensor_id;sensor_type;location;lat;lon;timestamp;P1;durP1;ratioP1;P2;durP2;ratioP2
43435;SDS011;36399;51.444;-2.018;2022-08-14T00:02:03;7.60;;;3.20;;
43435;SDS011;36399;51.444;-2.018;2022-08-14T00:04:31;7.57;;;3.33;;
43435;SDS011;36399;51.444;-2.018;2022-08-14T00:06:58;5.37;;;2.93;;
43435;SDS011;36399;51.444;-2.018;2022-08-14T00:09:24;9.03;;;3.27;;
43435;SDS011;36399;51.444;-2.018;2022-08-14T00:11:50;3.83;;;2.50;;
43435;SDS011;36399;51.444;-2.018;2022-08-14T00:14:16;6.07;;;2.67;;
43435;SDS011;36399;51.444;-2.018;2022-08-14T00:16:42;7.47;;;2.97;;
43435;SDS011;36399;51.444;-2.018;2022-08-14T00:19:09;6.10;;;2.67;;
43435;SDS011;36399;51.444;-2.018;2022-08-14T00:21:35;5.70;;;3.03;;
43435;SDS011;36399;51.444;-2.018;2022-08-14T00:24:01;6.80;;;2.53;;
43435;SDS011;36399;51.444;-2.018;2022-08-14T00:26:29;7.87;;;2.97;;
43435;SDS011;36399;51.444;-2.018;2022-08-14T00:28:55;5.10;;;3.30;;
43435;SDS011;36399;51.444;-2.018;2022-08-14T00:31:21;6.70;;;3.50;;
43435;SDS011;36399;51.444;-2.018;2022-08-14T00:33:48;4.37;;;2.57;;
43435;SDS011;36399;51.444;-2.018;2022-08-14T00:36:14;7.07;;;3.17;;
43435;SDS011;36399;51.444;-2.018;2022-08-14T00:38:40;6.60;;;2.40;;
43435;SDS011;36399;51.444;-2.018;2022-08-14T00:41:06;5.87;;;3.40;;
43435;SDS011;36399;51.444;-2.018;2022-08-14T00:43:33;4.60;;;2.40;;
43435;SDS011;36399;51.444;-2.018;2022-08-14T00:46:04;8.00;;;2.83;;
43435;SDS011;36399;51.444;-2.018;2022-08-14T00:48:32;5.20;;;2.50;;
43435;SDS011;36399;51.444;-2.018;2022-08-14T00:50:58;4.20;;;2.63;;
43435;SDS011;36399;51.444;-2.018;2022-08-14T00:53:25;6.17;;;2.40;;
43435;SDS011;36399;51.444;-2.018;2022-08-14T00:55:51;4.17;;;2.27;;
43435;SDS011;36399;51.444;-2.018;2022-08-14T00:58:20;9.87;;;2.80;;
43435;SDS011;36399;51.444;-2.018;2022-08-14T01:01:01;6.40;;;2.63;;
43435;SDS011;36399;51.444;-2.018;2022-08-14T01:03:30;7.40;;;2.73;;
43435;SDS011;36399;51.444;-2.018;2022-08-14T01:06:00;8.10;;;2.93;;
43435;SDS011;36399;51.444;-2.018;2022-08-14T01:08:27;3.93;;;2.70;;
43435;SDS011;36399;51.444;-2.018;2022-08-14T01:10:56;7.13;;;2.83;;
43435;SDS011;36399;51.444;-2.018;2022-08-14T01:15:58;5.10;;;2.60;;
43435;SDS011;36399;51.444;-2.018;2022-08-14T01:18:26;4.43;;;2.90;;
43435;SDS011;36399;51.444;-2.018;2022-08-14T01:21:12;4.93;;;3.33;;
43435;SDS011;36399;51.444;-2.018;2022-08-14T01:23:42;4.67;;;2.53;;
43435;SDS011;36399;51.444;-2.018;2022-08-14T01:26:10;4.90;;;3.13;;
43435;SDS011;36399;51.444;-2.018;2022-08-14T01:28:37;6.37;;;2.40;;
43435;SDS011;36399;51.444;-2.018;2022-08-14T01:31:07;7.10;;;3.00;;
43435;SDS011;36399;51.444;-2.018;2022-08-14T01:33:37;6.50;;;3.10;;
43435;SDS011;36399;51.444;-2.018;2022-08-14T01:36:06;6.33;;;3.23;;
43435;SDS011;36399;51.444;-2.018;2022-08-14T01:38:34;5.73;;;3.30;;
43435;SDS011;36399;51.444;-2.018;2022-08-14T01:41:01;4.33;;;2.83;;
43435;SDS011;36399;51.444;-2.018;2022-08-14T01:43:29;4.83;;;3.43;;
43435;SDS011;36399;51.444;-2.018;2022-08-14T01:45:58;5.00;;;3.00;;
43435;SDS011;36399;51.444;-2.018;2022-08-14T01:48:25;5.20;;;3.20;;
43435;SDS011;36399;51.444;-2.018;2022-08-14T01:51:00;5.65;;;3.40;;
43435;SDS011;36399;51.444;-2.018;2022-08-14T01:53:27;4.40;;;2.80;;
43435;SDS011;36399;51.444;-2.018;2022-08-14T01:55:58;3.70;;;2.77;;
43435;SDS011;36399;51.444;-2.018;2022-08-14T01:58:27;4.53;;;2.70;;
43435;SDS011;36399;51.444;-2.018;2022-08-14T02:00:54;6.03;;;3.07;;
43435;SDS011;36399;51.444;-2.018;2022-08-14T02:03:28;10.63;;;2.60;;
43435;SDS011;36399;51.444;-2.018;2022-08-14T02:05:56;4.30;;;2.67;;
43435;SDS011;36399;51.444;-2.018;2022-08-14T02:08:25;6.10;;;2.73;;
43435;SDS011;36399;51.444;-2.018;2022-08-14T02:10:55;4.23;;;2.73;;
43435;SDS011;36399;51.444;-2.018;2022-08-14T02:13:42;6.83;;;2.97;;
43435;SDS011;36399;51.444;-2.018;2022-08-14T02:16:11;4.50;;;2.50;;
43435;SDS011;36399;51.444;-2.018;2022-08-14T02:18:38;3.80;;;2.50;;
43435;SDS011;36399;51.444;-2.018;2022-08-14T02:21:05;3.67;;;2.47;;
43435;SDS011;36399;51.444;-2.018;2022-08-14T02:23:31;4.90;;;2.90;;
43435;SDS011;36399;51.444;-2.018;2022-08-14T02:25:57;3.47;;;2.77;;
43435;SDS011;36399;51.444;-2.018;2022-08-14T02:28:26;5.43;;;3.30;;
43435;SDS011;36399;51.444;-2.018;2022-08-14T02:30:57;5.60;;;3.30;;
43435;SDS011;36399;51.444;-2.018;2022-08-14T02:33:24;4.70;;;3.60;;
43435;SDS011;36399;51.444;-2.018;2022-08-14T02:35:52;5.33;;;3.70;;
43435;SDS011;36399;51.444;-2.018;2022-08-14T02:38:19;6.83;;;3.97;;
43435;SDS011;36399;51.444;-2.018;2022-08-14T02:40:45;6.30;;;3.40;;
43435;SDS011;36399;51.444;-2.018;2022-08-14T02:43:13;5.30;;;3.70;;
43435;SDS011;36399;51.444;-2.018;2022-08-14T02:45:39;5.57;;;3.20;;
43435;SDS011;36399;51.444;-2.018;2022-08-14T02:48:05;4.80;;;3.17;;
43435;SDS011;36399;51.444;-2.018;2022-08-14T02:50:32;5.87;;;3.37;;
43435;SDS011;36399;51.444;-2.018;2022-08-14T02:53:02;5.07;;;3.60;;
43435;SDS011;36399;51.444;-2.018;2022-08-14T02:55:28;4.67;;;3.30;;
43435;SDS011;36399;51.444;-2.018;2022-08-14T02:57:55;6.47;;;3.67;;
43435;SDS011;36399;51.444;-2.018;2022-08-14T03:00:22;6.03;;;3.70;;
43435;SDS011;36399;51.444;-2.018;2022-08-14T03:02:48;5.37;;;3.37;;
43435;SDS011;36399;51.444;-2.018;2022-08-14T03:05:18;5.10;;;3.43;;
43435;SDS011;36399;51.444;-2.018;2022-08-14T03:07:44;4.97;;;3.43;;
43435;SDS011;36399;51.444;-2.018;2022-08-14T03:10:10;21.13;;;11.43;;
43435;SDS011;36399;51.444;-2.018;2022-08-14T03:12:36;9.07;;;6.17;;
43435;SDS011;36399;51.444;-2.018;2022-08-14T03:15:03;5.73;;;4.00;;
43435;SDS011;36399;51.444;-2.018;2022-08-14T03:17:38;5.50;;;3.33;;
43435;SDS011;36399;51.444;-2.018;2022-08-14T03:20:05;5.13;;;3.90;;
43435;SDS011;36399;51.444;-2.018;2022-08-14T03:22:31;4.50;;;3.30;;
43435;SDS011;36399;51.444;-2.018;2022-08-14T03:24:58;5.37;;;3.10;;
43435;SDS011;36399;51.444;-2.018;2022-08-14T03:27:25;5.10;;;3.50;;
43435;SDS011;36399;51.444;-2.018;2022-08-14T03:29:54;6.33;;;3.40;;
43435;SDS011;36399;51.444;-2.018;2022-08-14T03:32:20;4.77;;;3.17;;
43435;SDS011;36399;51.444;-2.018;2022-08-14T03:34:46;5.60;;;3.03;;
43435;SDS011;36399;51.444;-2.018;2022-08-14T03:37:12;5.10;;;3.13;;
43435;SDS011;36399;51.444;-2.018;2022-08-14T03:39:38;5.47;;;3.13;;
43435;SDS011;36399;51.444;-2.018;2022-08-14T03:42:04;6.63;;;3.07;;
43435;SDS011;36399;51.444;-2.018;2022-08-14T03:44:30;4.67;;;3.40;;
43435;SDS011;36399;51.444;-2.018;2022-08-14T03:46:59;5.70;;;3.57;;
43435;SDS011;36399;51.444;-2.018;2022-08-14T03:49:25;6.53;;;3.17;;
43435;SDS011;36399;51.444;-2.018;2022-08-14T03:51:51;5.47;;;3.60;;
43435;SDS011;36399;51.444;-2.018;2022-08-14T03:54:17;6.30;;;3.60;;
43435;SDS011;36399;51.444;-2.018;2022-08-14T03:56:43;4.27;;;3.13;;
43435;SDS011;36399;51.444;-2.018;2022-08-14T03:59:10;4.63;;;3.40;;
43435;SDS011;36399;51.444;-2.018;2022-08-14T04:01:38;4.50;;;3.10;;
43435;SDS011;36399;51.444;-2.018;2022-08-14T04:04:06;4.80;;;3.30;;
43435;SDS011;36399;51.444;-2.018;2022-08-14T04:06:33;4.90;;;3.00;;
43435;SDS011;36399;51.444;-2.018;2022-08-14T04:09:00;7.10;;;3.40;;
43435;SDS011;36399;51.444;-2.018;2022-08-14T04:11:27;4.57;;;3.40;;
43435;SDS011;36399;51.444;-2.018;2022-08-14T04:13:54;5.37;;;3.33;;
43435;SDS011;36399;51.444;-2.018;2022-08-14T04:16:20;5.30;;;3.80;;
43435;SDS011;36399;51.444;-2.018;2022-08-14T04:18:48;4.90;;;3.50;;
43435;SDS011;36399;51.444;-2.018;2022-08-14T04:21:18;5.03;;;3.37;;
43435;SDS011;36399;51.444;-2.018;2022-08-14T04:23:45;5.97;;;3.80;;
43435;SDS011;36399;51.444;-2.018;2022-08-14T04:26:13;5.83;;;3.07;;
43435;SDS011;36399;51.444;-2.018;2022-08-14T04:28:43;7.70;;;3.50;;
43435;SDS011;36399;51.444;-2.018;2022-08-14T04:31:10;5.20;;;3.27;;
43435;SDS011;36399;51.444;-2.018;2022-08-14T04:33:36;6.37;;;3.67;;
43435;SDS011;36399;51.444;-2.018;2022-08-14T04:36:03;5.17;;;3.90;;
43435;SDS011;36399;51.444;-2.018;2022-08-14T04:38:29;4.63;;;3.53;;
43435;SDS011;36399;51.444;-2.018;2022-08-14T04:41:14;6.03;;;4.17;;
43435;SDS011;36399;51.444;-2.018;2022-08-14T04:43:58;5.07;;;3.60;;
43435;SDS011;36399;51.444;-2.018;2022-08-14T04:46:24;5.80;;;3.60;;
43435;SDS011;36399;51.444;-2.018;2022-08-14T04:48:53;6.73;;;5.57;;
43435;SDS011;36399;51.444;-2.018;2022-08-14T04:51:20;5.37;;;3.83;;
43435;SDS011;36399;51.444;-2.018;2022-08-14T04:53:51;6.20;;;4.00;;
43435;SDS011;36399;51.444;-2.018;2022-08-14T04:56:18;9.07;;;3.77;;
43435;SDS011;36399;51.444;-2.018;2022-08-14T04:58:47;5.93;;;4.20;;
43435;SDS011;36399;51.444;-2.018;2022-08-14T05:01:14;6.87;;;4.20;;
43435;SDS011;36399;51.444;-2.018;2022-08-14T05:03:41;5.57;;;3.70;;
43435;SDS011;36399;51.444;-2.018;2022-08-14T05:06:08;7.67;;;4.43;;
43435;SDS011;36399;51.444;-2.018;2022-08-14T05:08:35;7.23;;;4.30;;
43435;SDS011;36399;51.444;-2.018;2022-08-14T05:11:04;5.80;;;3.97;;
43435;SDS011;36399;51.444;-2.018;2022-08-14T05:13:32;6.10;;;4.30;;
43435;SDS011;36399;51.444;-2.018;2022-08-14T05:16:00;5.87;;;4.73;;
43435;SDS011;36399;51.444;-2.018;2022-08-14T05:18:29;8.37;;;4.23;;
43435;SDS011;36399;51.444;-2.018;2022-08-14T05:20:57;5.63;;;3.90;;
43435;SDS011;36399;51.444;-2.018;2022-08-14T05:23:26;5.43;;;4.33;;
43435;SDS011;36399;51.444;-2.018;2022-08-14T05:25:55;5.57;;;3.83;;
43435;SDS011;36399;51.444;-2.018;2022-08-14T05:28:31;6.83;;;4.07;;
43435;SDS011;36399;51.444;-2.018;2022-08-14T05:31:00;5.43;;;4.20;;
43435;SDS011;36399;51.444;-2.018;2022-08-14T05:33:28;6.73;;;4.63;;
43435;SDS011;36399;51.444;-2.018;2022-08-14T05:35:56;8.43;;;5.80;;
43435;SDS011;36399;51.444;-2.018;2022-08-14T05:38:28;6.93;;;4.50;;
43435;SDS011;36399;51.444;-2.018;2022-08-14T05:41:11;6.97;;;4.50;;
43435;SDS011;36399;51.444;-2.018;2022-08-14T05:43:40;7.30;;;4.40;;
43435;SDS011;36399;51.444;-2.018;2022-08-14T05:46:11;9.20;;;5.13;;
43435;SDS011;36399;51.444;-2.018;2022-08-14T05:48:38;6.93;;;6.07;;
43435;SDS011;36399;51.444;-2.018;2022-08-14T05:51:04;12.53;;;5.90;;
43435;SDS011;36399;51.444;-2.018;2022-08-14T05:53:30;8.17;;;5.00;;
43435;SDS011;36399;51.444;-2.018;2022-08-14T05:55:56;9.70;;;5.13;;
43435;SDS011;36399;51.444;-2.018;2022-08-14T05:58:23;6.50;;;4.43;;
43435;SDS011;36399;51.444;-2.018;2022-08-14T06:00:50;7.17;;;5.20;;
43435;SDS011;36399;51.444;-2.018;2022-08-14T06:03:18;6.77;;;4.80;;
43435;SDS011;36399;51.444;-2.018;2022-08-14T06:05:46;7.30;;;5.33;;
43435;SDS011;36399;51.444;-2.018;2022-08-14T06:08:23;9.27;;;6.77;;
43435;SDS011;36399;51.444;-2.018;2022-08-14T06:10:51;6.70;;;5.60;;
43435;SDS011;36399;51.444;-2.018;2022-08-14T06:13:19;6.10;;;4.70;;
43435;SDS011;36399;51.444;-2.018;2022-08-14T06:15:46;8.37;;;4.67;;
43435;SDS011;36399;51.444;-2.018;2022-08-14T06:18:14;6.43;;;4.30;;
43435;SDS011;36399;51.444;-2.018;2022-08-14T06:20:40;8.60;;;4.77;;
43435;SDS011;36399;51.444;-2.018;2022-08-14T06:23:06;6.23;;;4.50;;
43435;SDS011;36399;51.444;-2.018;2022-08-14T06:25:32;7.70;;;5.10;;
43435;SDS011;36399;51.444;-2.018;2022-08-14T06:27:58;8.87;;;4.90;;
43435;SDS011;36399;51.444;-2.018;2022-08-14T06:30:26;8.00;;;4.70;;
43435;SDS011;36399;51.444;-2.018;2022-08-14T06:32:54;6.87;;;4.50;;
43435;SDS011;36399;51.444;-2.018;2022-08-14T06:35:20;5.53;;;4.80;;
43435;SDS011;36399;51.444;-2.018;2022-08-14T06:40:19;7.10;;;4.90;;
43435;SDS011;36399;51.444;-2.018;2022-08-14T06:42:55;7.97;;;4.53;;
43435;SDS011;36399;51.444;-2.018;2022-08-14T06:45:23;6.80;;;4.13;;
43435;SDS011;36399;51.444;-2.018;2022-08-14T06:47:49;7.47;;;4.67;;
43435;SDS011;36399;51.444;-2.018;2022-08-14T06:50:17;7.47;;;4.93;;
43435;SDS011;36399;51.444;-2.018;2022-08-14T06:52:46;5.07;;;4.37;;
43435;SDS011;36399;51.444;-2.018;2022-08-14T06:55:13;6.50;;;4.30;;
43435;SDS011;36399;51.444;-2.018;2022-08-14T06:57:42;6.73;;;4.70;;
43435;SDS011;36399;51.444;-2.018;2022-08-14T07:00:18;8.93;;;5.77;;
43435;SDS011;36399;51.444;-2.018;2022-08-14T07:02:46;5.57;;;4.13;;
43435;SDS011;36399;51.444;-2.018;2022-08-14T07:05:31;6.70;;;4.90;;
43435;SDS011;36399;51.444;-2.018;2022-08-14T07:10:40;11.13;;;4.80;;
43435;SDS011;36399;51.444;-2.018;2022-08-14T07:13:11;8.47;;;4.87;;
43435;SDS011;36399;51.444;-2.018;2022-08-14T07:15:39;7.30;;;4.37;;
43435;SDS011;36399;51.444;-2.018;2022-08-14T07:18:07;6.38;;;3.90;;
43435;SDS011;36399;51.444;-2.018;2022-08-14T07:20:34;6.07;;;4.55;;
43435;SDS011;36399;51.444;-2.018;2022-08-14T07:23:01;6.05;;;4.20;;
43435;SDS011;36399;51.444;-2.018;2022-08-14T07:25:28;6.30;;;4.37;;
43435;SDS011;36399;51.444;-2.018;2022-08-14T07:27:54;6.75;;;4.05;;
43435;SDS011;36399;51.444;-2.018;2022-08-14T07:30:20;5.68;;;3.90;;
43435;SDS011;36399;51.444;-2.018;2022-08-14T07:32:47;5.05;;;3.63;;
43435;SDS011;36399;51.444;-2.018;2022-08-14T07:35:13;5.97;;;4.15;;
43435;SDS011;36399;51.444;-2.018;2022-08-14T07:37:39;6.05;;;4.13;;
43435;SDS011;36399;51.444;-2.018;2022-08-14T07:40:06;7.68;;;3.85;;
43435;SDS011;36399;51.444;-2.018;2022-08-14T07:42:33;6.47;;;4.20;;
43435;SDS011;36399;51.444;-2.018;2022-08-14T07:44:59;4.43;;;3.15;;
43435;SDS011;36399;51.444;-2.018;2022-08-14T07:47:25;6.65;;;3.70;;
43435;SDS011;36399;51.444;-2.018;2022-08-14T07:49:59;4.57;;;3.55;;
43435;SDS011;36399;51.444;-2.018;2022-08-14T07:52:27;7.97;;;4.57;;
43435;SDS011;36399;51.444;-2.018;2022-08-14T07:54:54;6.60;;;3.65;;
43435;SDS011;36399;51.444;-2.018;2022-08-14T07:57:21;6.28;;;3.50;;
43435;SDS011;36399;51.444;-2.018;2022-08-14T07:59:47;4.97;;;3.67;;
43435;SDS011;36399;51.444;-2.018;2022-08-14T08:02:14;4.95;;;3.40;;
43435;SDS011;36399;51.444;-2.018;2022-08-14T08:04:42;4.07;;;2.78;;
43435;SDS011;36399;51.444;-2.018;2022-08-14T08:07:11;5.18;;;2.85;;
43435;SDS011;36399;51.444;-2.018;2022-08-14T08:09:40;4.80;;;3.28;;
43435;SDS011;36399;51.444;-2.018;2022-08-14T08:12:16;5.85;;;3.85;;
43435;SDS011;36399;51.444;-2.018;2022-08-14T08:14:45;7.88;;;3.53;;
43435;SDS011;36399;51.444;-2.018;2022-08-14T08:17:19;6.05;;;3.28;;
43435;SDS011;36399;51.444;-2.018;2022-08-14T08:19:47;5.28;;;3.15;;
43435;SDS011;36399;51.444;-2.018;2022-08-14T08:22:13;5.32;;;3.03;;
43435;SDS011;36399;51.444;-2.018;2022-08-14T08:24:39;5.75;;;3.50;;
43435;SDS011;36399;51.444;-2.018;2022-08-14T08:27:15;5.43;;;3.45;;
43435;SDS011;36399;51.444;-2.018;2022-08-14T08:29:42;4.50;;;3.08;;
43435;SDS011;36399;51.444;-2.018;2022-08-14T08:32:08;4.90;;;3.25;;
43435;SDS011;36399;51.444;-2.018;2022-08-14T08:34:44;5.75;;;3.33;;
43435;SDS011;36399;51.444;-2.018;2022-08-14T08:37:11;10.45;;;3.70;;
43435;SDS011;36399;51.444;-2.018;2022-08-14T08:39:43;5.88;;;2.88;;
43435;SDS011;36399;51.444;-2.018;2022-08-14T08:42:10;4.63;;;3.05;;
43435;SDS011;36399;51.444;-2.018;2022-08-14T08:44:36;3.60;;;2.60;;
43435;SDS011;36399;51.444;-2.018;2022-08-14T08:47:02;4.32;;;2.83;;
43435;SDS011;36399;51.444;-2.018;2022-08-14T08:49:36;6.40;;;3.00;;
43435;SDS011;36399;51.444;-2.018;2022-08-14T08:52:06;4.72;;;2.80;;
43435;SDS011;36399;51.444;-2.018;2022-08-14T08:54:33;4.75;;;3.03;;
43435;SDS011;36399;51.444;-2.018;2022-08-14T08:56:59;4.55;;;3.03;;
43435;SDS011;36399;51.444;-2.018;2022-08-14T08:59:31;5.82;;;2.80;;
43435;SDS011;36399;51.444;-2.018;2022-08-14T09:01:58;8.10;;;2.92;;
43435;SDS011;36399;51.444;-2.018;2022-08-14T09:04:29;5.50;;;2.63;;
43435;SDS011;36399;51.444;-2.018;2022-08-14T09:06:59;4.38;;;2.42;;
43435;SDS011;36399;51.444;-2.018;2022-08-14T09:09:26;4.03;;;2.60;;
43435;SDS011;36399;51.444;-2.018;2022-08-14T09:11:54;3.92;;;2.60;;
43435;SDS011;36399;51.444;-2.018;2022-08-14T09:14:23;3.75;;;2.67;;
43435;SDS011;36399;51.444;-2.018;2022-08-14T09:16:51;4.07;;;3.10;;
43435;SDS011;36399;51.444;-2.018;2022-08-14T09:19:18;4.50;;;3.10;;
43435;SDS011;36399;51.444;-2.018;2022-08-14T09:21:46;4.32;;;2.67;;
43435;SDS011;36399;51.444;-2.018;2022-08-14T09:24:12;4.82;;;2.65;;
43435;SDS011;36399;51.444;-2.018;2022-08-14T09:26:40;3.45;;;2.40;;
43435;SDS011;36399;51.444;-2.018;2022-08-14T09:29:08;4.20;;;2.42;;
43435;SDS011;36399;51.444;-2.018;2022-08-14T09:31:35;4.38;;;2.58;;
43435;SDS011;36399;51.444;-2.018;2022-08-14T09:37:29;5.85;;;2.55;;
43435;SDS011;36399;51.444;-2.018;2022-08-14T09:40:04;4.00;;;2.22;;
43435;SDS011;36399;51.444;-2.018;2022-08-14T09:45:45;5.65;;;2.33;;
43435;SDS011;36399;51.444;-2.018;2022-08-14T09:48:18;4.55;;;2.38;;
43435;SDS011;36399;51.444;-2.018;2022-08-14T09:50:53;6.60;;;2.10;;
43435;SDS011;36399;51.444;-2.018;2022-08-14T09:53:34;4.70;;;2.83;;
43435;SDS011;36399;51.444;-2.018;2022-08-14T09:56:10;4.90;;;2.33;;
43435;SDS011;36399;51.444;-2.018;2022-08-14T09:58:37;3.75;;;2.28;;
43435;SDS011;36399;51.444;-2.018;2022-08-14T10:01:12;5.07;;;2.50;;
43435;SDS011;36399;51.444;-2.018;2022-08-14T10:03:47;4.70;;;2.75;;
43435;SDS011;36399;51.444;-2.018;2022-08-14T10:06:20;3.50;;;2.25;;
43435;SDS011;36399;51.444;-2.018;2022-08-14T10:08:53;3.22;;;1.92;;
43435;SDS011;36399;51.444;-2.018;2022-08-14T10:11:25;5.25;;;1.95;;
43435;SDS011;36399;51.444;-2.018;2022-08-14T10:13:58;4.38;;;3.10;;
43435;SDS011;36399;51.444;-2.018;2022-08-14T10:16:40;3.13;;;1.83;;
43435;SDS011;36399;51.444;-2.018;2022-08-14T10:19:08;2.92;;;1.92;;
43435;SDS011;36399;51.444;-2.018;2022-08-14T10:21:37;3.63;;;1.85;;
43435;SDS011;36399;51.444;-2.018;2022-08-14T10:24:04;2.90;;;1.75;;
43435;SDS011;36399;51.444;-2.018;2022-08-14T10:26:33;3.25;;;1.90;;
43435;SDS011;36399;51.444;-2.018;2022-08-14T10:29:04;3.67;;;1.50;;
43435;SDS011;36399;51.444;-2.018;2022-08-14T10:31:32;3.58;;;2.00;;
43435;SDS011;36399;51.444;-2.018;2022-08-14T10:36:33;2.72;;;1.85;;
43435;SDS011;36399;51.444;-2.018;2022-08-14T10:39:14;2.72;;;1.50;;
43435;SDS011;36399;51.444;-2.018;2022-08-14T10:41:44;4.35;;;2.20;;
43435;SDS011;36399;51.444;-2.018;2022-08-14T10:44:12;2.20;;;1.20;;
43435;SDS011;36399;51.444;-2.018;2022-08-14T10:49:24;3.17;;;1.45;;
43435;SDS011;36399;51.444;-2.018;2022-08-14T10:52:10;2.00;;;1.20;;
43435;SDS011;36399;51.444;-2.018;2022-08-14T10:54:39;2.35;;;1.60;;
43435;SDS011;36399;51.444;-2.018;2022-08-14T11:00:12;1.98;;;0.95;;
43435;SDS011;36399;51.444;-2.018;2022-08-14T11:02:40;3.13;;;1.17;;
43435;SDS011;36399;51.444;-2.018;2022-08-14T11:07:52;3.03;;;1.23;;
43435;SDS011;36399;51.444;-2.018;2022-08-14T11:10:19;1.80;;;1.50;;
43435;SDS011;36399;51.444;-2.018;2022-08-14T11:12:50;2.22;;;1.13;;
43435;SDS011;36399;51.444;-2.018;2022-08-14T11:15:20;1.70;;;1.10;;
43435;SDS011;36399;51.444;-2.018;2022-08-14T11:17:48;1.65;;;0.95;;
43435;SDS011;36399;51.444;-2.018;2022-08-14T11:20:16;2.35;;;1.27;;
43435;SDS011;36399;51.444;-2.018;2022-08-14T11:22:51;4.10;;;1.38;;
43435;SDS011;36399;51.444;-2.018;2022-08-14T11:25:19;3.03;;;1.38;;
43435;SDS011;36399;51.444;-2.018;2022-08-14T11:27:55;3.38;;;1.40;;
43435;SDS011;36399;51.444;-2.018;2022-08-14T11:30:23;4.00;;;1.95;;
43435;SDS011;36399;51.444;-2.018;2022-08-14T11:35:20;2.72;;;1.35;;
43435;SDS011;36399;51.444;-2.018;2022-08-14T11:37:58;4.50;;;1.98;;
43435;SDS011;36399;51.444;-2.018;2022-08-14T11:40:28;9.60;;;7.65;;
43435;SDS011;36399;51.444;-2.018;2022-08-14T11:43:03;2.83;;;1.58;;
43435;SDS011;36399;51.444;-2.018;2022-08-14T11:45:36;1.95;;;1.25;;
43435;SDS011;36399;51.444;-2.018;2022-08-14T11:48:14;2.65;;;1.70;;
43435;SDS011;36399;51.444;-2.018;2022-08-14T11:50:42;3.03;;;1.30;;
43435;SDS011;36399;51.444;-2.018;2022-08-14T11:53:17;3.00;;;1.73;;
43435;SDS011;36399;51.444;-2.018;2022-08-14T11:55:54;2.67;;;1.48;;
43435;SDS011;36399;51.444;-2.018;2022-08-14T11:58:27;3.92;;;1.30;;
43435;SDS011;36399;51.444;-2.018;2022-08-14T12:00:57;2.72;;;1.30;;
43435;SDS011;36399;51.444;-2.018;2022-08-14T12:06:23;2.72;;;1.52;;
43435;SDS011;36399;51.444;-2.018;2022-08-14T12:08:50;3.17;;;1.55;;
43435;SDS011;36399;51.444;-2.018;2022-08-14T12:11:18;3.22;;;1.30;;
43435;SDS011;36399;51.444;-2.018;2022-08-14T12:13:46;2.15;;;1.42;;
43435;SDS011;36399;51.444;-2.018;2022-08-14T12:16:13;1.67;;;1.20;;
43435;SDS011;36399;51.444;-2.018;2022-08-14T12:18:43;1.37;;;0.90;;
43435;SDS011;36399;51.444;-2.018;2022-08-14T12:23:42;1.55;;;0.98;;
43435;SDS011;36399;51.444;-2.018;2022-08-14T12:26:10;3.92;;;1.48;;
43435;SDS011;36399;51.444;-2.018;2022-08-14T12:28:47;3.25;;;1.20;;
43435;SDS011;36399;51.444;-2.018;2022-08-14T12:31:16;2.10;;;1.17;;
43435;SDS011;36399;51.444;-2.018;2022-08-14T12:33:57;3.40;;;1.17;;
43435;SDS011;36399;51.444;-2.018;2022-08-14T12:36:25;2.97;;;1.02;;
43435;SDS011;36399;51.444;-2.018;2022-08-14T12:41:22;2.10;;;0.90;;
43435;SDS011;36399;51.444;-2.018;2022-08-14T12:43:52;2.08;;;1.30;;
43435;SDS011;36399;51.444;-2.018;2022-08-14T12:46:32;1.95;;;1.10;;
43435;SDS011;36399;51.444;-2.018;2022-08-14T12:49:01;1.63;;;0.93;;
43435;SDS011;36399;51.444;-2.018;2022-08-14T12:51:38;2.70;;;1.10;;
43435;SDS011;36399;51.444;-2.018;2022-08-14T12:56:39;1.65;;;1.00;;
43435;SDS011;36399;51.444;-2.018;2022-08-14T12:59:08;3.35;;;2.00;;
43435;SDS011;36399;51.444;-2.018;2022-08-14T13:01:35;2.13;;;1.37;;
43435;SDS011;36399;51.444;-2.018;2022-08-14T13:04:02;2.50;;;0.90;;
43435;SDS011;36399;51.444;-2.018;2022-08-14T13:06:33;3.70;;;0.93;;
43435;SDS011;36399;51.444;-2.018;2022-08-14T13:09:01;1.55;;;0.93;;
43435;SDS011;36399;51.444;-2.018;2022-08-14T13:11:28;1.65;;;0.77;;
43435;SDS011;36399;51.444;-2.018;2022-08-14T13:14:17;1.45;;;0.90;;
43435;SDS011;36399;51.444;-2.018;2022-08-14T13:16:50;1.67;;;1.10;;
43435;SDS011;36399;51.444;-2.018;2022-08-14T13:19:18;1.67;;;0.77;;
43435;SDS011;36399;51.444;-2.018;2022-08-14T13:21:45;3.83;;;0.82;;
43435;SDS011;36399;51.444;-2.018;2022-08-14T13:24:13;1.60;;;0.90;;
43435;SDS011;36399;51.444;-2.018;2022-08-14T13:26:46;1.33;;;1.15;;
43435;SDS011;36399;51.444;-2.018;2022-08-14T13:29:18;1.50;;;0.90;;
43435;SDS011;36399;51.444;-2.018;2022-08-14T13:31:48;2.75;;;1.20;;
43435;SDS011;36399;51.444;-2.018;2022-08-14T13:34:19;1.83;;;0.88;;
43435;SDS011;36399;51.444;-2.018;2022-08-14T13:36:47;1.50;;;1.05;;
43435;SDS011;36399;51.444;-2.018;2022-08-14T13:39:14;3.42;;;1.10;;
43435;SDS011;36399;51.444;-2.018;2022-08-14T13:41:42;2.10;;;1.02;;
43435;SDS011;36399;51.444;-2.018;2022-08-14T13:44:09;1.17;;;0.80;;
43435;SDS011;36399;51.444;-2.018;2022-08-14T13:46:36;2.75;;;1.00;;
43435;SDS011;36399;51.444;-2.018;2022-08-14T13:49:03;2.20;;;1.05;;
43435;SDS011;36399;51.444;-2.018;2022-08-14T13:51:35;2.00;;;0.90;;
43435;SDS011;36399;51.444;-2.018;2022-08-14T13:54:04;5.32;;;0.85;;
43435;SDS011;36399;51.444;-2.018;2022-08-14T13:56:31;1.85;;;1.02;;
43435;SDS011;36399;51.444;-2.018;2022-08-14T13:59:08;1.52;;;0.88;;
43435;SDS011;36399;51.444;-2.018;2022-08-14T14:01:34;2.03;;;1.05;;
43435;SDS011;36399;51.444;-2.018;2022-08-14T14:04:04;2.13;;;0.93;;
43435;SDS011;36399;51.444;-2.018;2022-08-14T14:06:32;1.30;;;0.80;;
43435;SDS011;36399;51.444;-2.018;2022-08-14T14:08:58;1.55;;;0.93;;
43435;SDS011;36399;51.444;-2.018;2022-08-14T14:11:26;2.13;;;1.55;;
43435;SDS011;36399;51.444;-2.018;2022-08-14T14:13:53;1.58;;;0.95;;
43435;SDS011;36399;51.444;-2.018;2022-08-14T14:16:21;1.70;;;0.93;;
43435;SDS011;36399;51.444;-2.018;2022-08-14T14:18:49;1.88;;;1.08;;
43435;SDS011;36399;51.444;-2.018;2022-08-14T14:21:21;3.03;;;1.10;;
43435;SDS011;36399;51.444;-2.018;2022-08-14T14:23:51;1.45;;;0.75;;
43435;SDS011;36399;51.444;-2.018;2022-08-14T14:26:18;1.55;;;1.00;;
43435;SDS011;36399;51.444;-2.018;2022-08-14T14:28:47;2.13;;;1.52;;
43435;SDS011;36399;51.444;-2.018;2022-08-14T14:31:16;3.63;;;1.13;;
43435;SDS011;36399;51.444;-2.018;2022-08-14T14:33:49;2.03;;;1.00;;
43435;SDS011;36399;51.444;-2.018;2022-08-14T14:36:17;2.65;;;1.10;;
43435;SDS011;36399;51.444;-2.018;2022-08-14T14:38:47;1.88;;;0.90;;
43435;SDS011;36399;51.444;-2.018;2022-08-14T14:41:16;3.95;;;1.40;;
43435;SDS011;36399;51.444;-2.018;2022-08-14T14:43:45;1.55;;;1.00;;
43435;SDS011;36399;51.444;-2.018;2022-08-14T14:46:15;1.20;;;1.00;;
43435;SDS011;36399;51.444;-2.018;2022-08-14T14:48:43;2.30;;;0.80;;
43435;SDS011;36399;51.444;-2.018;2022-08-14T14:51:13;1.92;;;1.10;;
43435;SDS011;36399;51.444;-2.018;2022-08-14T14:53:40;1.70;;;0.90;;
43435;SDS011;36399;51.444;-2.018;2022-08-14T14:56:08;1.75;;;0.93;;
43435;SDS011;36399;51.444;-2.018;2022-08-14T14:58:38;3.13;;;1.23;;
43435;SDS011;36399;51.444;-2.018;2022-08-14T15:01:08;1.93;;;1.20;;
43435;SDS011;36399;51.444;-2.018;2022-08-14T15:03:35;1.77;;;1.02;;
43435;SDS011;36399;51.444;-2.018;2022-08-14T15:06:03;1.20;;;1.00;;
43435;SDS011;36399;51.444;-2.018;2022-08-14T15:08:30;2.47;;;1.10;;
43435;SDS011;36399;51.444;-2.018;2022-08-14T15:10:56;2.13;;;1.20;;
43435;SDS011;36399;51.444;-2.018;2022-08-14T15:13:25;1.58;;;1.00;;
43435;SDS011;36399;51.444;-2.018;2022-08-14T15:15:52;3.17;;;1.00;;
43435;SDS011;36399;51.444;-2.018;2022-08-14T15:18:21;1.55;;;0.80;;
43435;SDS011;36399;51.444;-2.018;2022-08-14T15:20:51;1.65;;;1.10;;
43435;SDS011;36399;51.444;-2.018;2022-08-14T15:23:23;2.08;;;1.60;;